Olho d'Agua do Casado, Brazil
Current Conditions -  °F | °C
As of 5:00 PM on Sunday 25 Jan 2015 (Local Time) from SBUF Reporting Station
Few Clouds Few Clouds  
Wind Chill: 93°   Ceiling: Unl
Heat Index: 93°   Visibility: 6mi
Dew Point: 59°   Wind: 10mph
Humidity: 32%   Direction: 110°ESE
Pressure: 29.85"   Gusts: NA
Location:  9.5°S, 37.83°W
Report Text: SBUF 252000Z 11009KT 9999 FEW022 34/15 Q1011
Loading
Personal Weather Stations






























Interactive Weather Map New forecast layout! Learn more

10-Day Weather Forecast

Advertisements
Track Severe Weather on mobile